ADDS METAR Data INFO
IDs: Format: Raw Decoded Include TAF

Data at: 1717 UTC 23 Oct 2017

KDNS 231715Z AUTO 32020G33KT 10SM CLR 15/04 A2996 RMK AO2
KDNS 231655Z AUTO 32023KT 10SM CLR 15/04 A2997 RMK AO2
KDNS 231635Z AUTO 31021G29KT 10SM CLR 14/04 A2997 RMK AO2
KDNS 231615Z AUTO 32025G33KT 10SM CLR 14/04 A2996 RMK AO2
KDNS 231555Z AUTO 32023G29KT 10SM CLR 14/05 A2995 RMK AO2
KDNS 231535Z AUTO 32016G22KT 10SM FEW055 FEW090 13/04 A2996 RMK AO2
KDNS 231515Z AUTO 31017G24KT 10SM SCT055 SCT075 BKN100 13/04 A2996 RMK AO2
KDNS 231455Z AUTO 32015G24KT 10SM FEW045 FEW060 BKN100 13/05 A2994 RMK AO2
KDNS 231435Z AUTO 33018G25KT 8SM -RA FEW044 SCT060 BKN070 12/06 A2992 RMK AO2
KDNS 231415Z AUTO 31015G22KT 10SM FEW038 SCT075 SCT090 13/05 A2993 RMK AO2
KDNS 231355Z AUTO 34013G18KT 10SM CLR 13/04 A2991 RMK AO2
KDNS 231335Z AUTO 34011KT 10SM CLR 12/04 A2992 RMK AO2
KDNS 231315Z AUTO 34010G17KT 10SM CLR 11/04 A2993 RMK AO2
KDNS 231255Z AUTO 31013G18KT 10SM CLR 11/03 A2993 RMK AO2
KDNS 231235Z AUTO 32009KT 10SM CLR 10/03 A2992 RMK AO2
KDNS 231215Z AUTO 00000KT 10SM CLR 08/02 A2990 RMK AO2
KDNS 231155Z AUTO 24005KT 10SM CLR 08/02 A2991 RMK AO2
KDNS 231135Z AUTO 25005KT 10SM CLR 08/02 A2990 RMK AO2
KDNS 231115Z AUTO 24004KT 10SM CLR 08/02 A2988 RMK AO2
KDNS 231055Z AUTO 22005KT 10SM CLR 08/02 A2988 RMK AO2
KDNS 231035Z AUTO 18004KT 10SM CLR 09/01 A2986 RMK AO2
KDNS 231015Z AUTO VRB05KT 10SM CLR 09/01 A2986 RMK AO2
KDNS 230955Z AUTO VRB04KT 10SM CLR 10/01 A2986 RMK AO2
KDNS 230935Z AUTO 20006G11KT CLR 09/01 A2986 RMK AO2
KDNS 230915Z AUTO 19006KT 10SM CLR 09/02 A2987 RMK AO2
KDNS 230855Z AUTO 20006KT 10SM CLR 09/01 A2988 RMK AO2
KDNS 230835Z AUTO 19006KT 10SM CLR 09/01 A2988 RMK AO2
KDNS 230815Z AUTO 19008KT 10SM CLR 09/01 A2989 RMK AO2
KDNS 230755Z AUTO 19006KT 10SM CLR 09/01 A2990 RMK AO2
KDNS 230735Z AUTO 19005KT 10SM CLR 09/01 A2992 RMK AO2
KDNS 230715Z AUTO 20004KT 10SM CLR 09/01 A2993 RMK AO2
KDNS 230655Z AUTO 20006KT 10SM CLR 10/01 A2992 RMK AO2
KDNS 230635Z AUTO 20006KT 10SM CLR 10/01 A2993 RMK AO2
KDNS 230615Z AUTO 20006KT 10SM CLR 10/01 A2993 RMK AO2
KDNS 230555Z AUTO 21006KT 10SM CLR 10/01 A2994 RMK AO2
KDNS 230535Z AUTO VRB04KT 10SM CLR 10/01 A2994 RMK AO2
KDNS 230515Z AUTO 19008KT 10SM CLR 10/01 A2995 RMK AO2
KDNS 230455Z AUTO 20007KT 10SM CLR 11/01 A2995 RMK AO2
KDNS 230435Z AUTO 19006G11KT 10SM CLR 11/01 A2996 RMK AO2
KDNS 230415Z AUTO 19007G15KT 10SM CLR 11/01 A2996 RMK AO2
KDNS 230355Z AUTO 17011KT 10SM CLR 11/01 A2996 RMK AO2
KDNS 230335Z AUTO 18008G14KT 10SM CLR 11/01 A2997 RMK AO2
KDNS 230315Z AUTO 19007G15KT 160V230 10SM CLR 12/01 A2998 RMK AO2
KDNS 230255Z AUTO 17011G17KT 10SM CLR 12/00 A2997 RMK AO2
KDNS 230235Z AUTO 17012KT 10SM CLR 12/01 A2997 RMK AO2
KDNS 230215Z AUTO 21004G14KT 10SM CLR 12/01 A2999 RMK AO2
KDNS 230155Z AUTO 17011KT 10SM CLR 13/00 A2999 RMK AO2
KDNS 230135Z AUTO 17010G15KT 10SM CLR 13/00 A2999 RMK AO2
KDNS 230115Z AUTO 16012KT 10SM CLR 13/01 A2999 RMK AO2
KDNS 230055Z AUTO 16010KT 10SM CLR 13/01 A3000 RMK AO2
KDNS 230035Z AUTO 16010KT 10SM CLR 13/01 A3000 RMK AO2
KDNS 230015Z AUTO 16009KT 10SM CLR 14/01 A3001 RMK AO2
KDNS 222355Z AUTO 16009KT 10SM CLR 14/01 A3001 RMK AO2
KDNS 222335Z AUTO 16008KT 10SM CLR 15/01 A3001 RMK AO2
KDNS 222315Z AUTO 10SM CLR 16/01 A3001 RMK AO2
KDNS 222255Z AUTO 18006G11KT 10SM CLR 17/02 A3001 RMK AO2
KDNS 222235Z AUTO 19006G14KT 10SM CLR 18/01 A3002 RMK AO2
KDNS 222215Z AUTO 20008KT 10SM CLR 18/00 A3002 RMK AO2
KDNS 222155Z AUTO 19008G15KT 10SM CLR 18/M00 A3002 RMK AO2
KDNS 222135Z AUTO 20009KT 10SM CLR 19/00 A3002 RMK AO2
KDNS 222115Z AUTO VRB06G12KT 10SM CLR 19/M00 A3003 RMK AO2
KDNS 222055Z AUTO VRB05G11KT 10SM CLR 19/M00 A3003 RMK AO2
KDNS 222035Z AUTO 21006G14KT 10SM CLR 19/00 A3004 RMK AO2
KDNS 222015Z AUTO 26009KT 10SM CLR 19/M00 A3005 RMK AO2
KDNS 221955Z AUTO 23010KT 10SM CLR 19/M01 A3005 RMK AO2
KDNS 221935Z AUTO VRB04G11KT 10SM CLR 18/M01 A3005 RMK AO2
KDNS 221915Z AUTO 25006G12KT 10SM CLR 18/M00 A3006 RMK AO2
KDNS 221855Z AUTO 24008KT 10SM CLR 18/M00 A3006 RMK AO2
KDNS 221835Z AUTO VRB06G11KT 10SM CLR 18/00 A3007 RMK AO2
KDNS 221815Z AUTO VRB05G15KT 10SM CLR 17/01 A3008 RMK AO2
KDNS 221755Z AUTO 27010KT 10SM CLR 17/00 A3009 RMK AO2
KDNS 221735Z AUTO 25009G16KT 10SM CLR 17/03 A3010 RMK AO2
KDNS 221715Z AUTO 25008KT 10SM CLR 16/04 A3011 RMK AO2
KDNS 221655Z AUTO 25008KT 210V270 10SM CLR 16/05 A3011 RMK AO2
KDNS 221635Z AUTO 25005G10KT 10SM CLR 15/06 A3011 RMK AO2
KDNS 221615Z AUTO VRB06KT 10SM CLR 14/06 A3011 RMK AO2
KDNS 221555Z AUTO 27006KT 10SM CLR 12/06 A3012 RMK AO2
KDNS 221535Z AUTO 10SM CLR 11/06 A3012 RMK AO2
KDNS 221515Z AUTO 25005KT 10SM CLR 10/06 A3012 RMK AO2
KDNS 221455Z AUTO 23004KT 10SM CLR 09/05 A3011 RMK AO2
KDNS 221435Z AUTO 00000KT 10SM CLR 08/05 A3011 RMK AO2
KDNS 221415Z AUTO 00000KT 10SM CLR 07/05 A3010 RMK AO2
KDNS 221355Z AUTO 00000KT 10SM CLR 07/05 A3010 RMK AO2
KDNS 221335Z AUTO 00000KT 10SM CLR 06/04 A3010 RMK AO2
KDNS 221315Z AUTO 23004KT 10SM CLR 05/04 A3009 RMK AO2
KDNS 221255Z AUTO 00000KT 10SM CLR 05/04 A3009 RMK AO2
KDNS 221235Z AUTO 00000KT 10SM CLR 06/05 A3008 RMK AO2
KDNS 221215Z AUTO 00000KT 10SM CLR 06/05 A3008 RMK AO2
KDNS 221155Z AUTO 00000KT 10SM CLR 06/05 A3008 RMK AO2
KDNS 221135Z AUTO 00000KT 10SM CLR 06/05 A3007 RMK AO2
KDNS 221115Z AUTO 00000KT 10SM CLR 06/05 A3007 RMK AO2
KDNS 221055Z AUTO 00000KT 10SM CLR 07/05 A3005 RMK AO2
KDNS 221035Z AUTO 00000KT 10SM CLR 07/05 A3004 RMK AO2
KDNS 221015Z AUTO 00000KT 10SM CLR 07/05 A3003 RMK AO2
KDNS 220955Z AUTO 00000KT 10SM CLR 08/05 A3002 RMK AO2
KDNS 220935Z AUTO 00000KT 10SM CLR 08/06 A3001 RMK AO2
KDNS 220915Z AUTO 00000KT 10SM CLR 08/06 A3001 RMK AO2
KDNS 220855Z AUTO 00000KT 10SM CLR 08/06 A3001 RMK AO2
KDNS 220835Z AUTO 25003KT 10SM CLR 08/06 A3001 RMK AO2
KDNS 220815Z AUTO 27004KT 10SM CLR 08/06 A3001 RMK AO2
KDNS 220755Z AUTO 00000KT 10SM CLR 08/06 A3000 RMK AO2
KDNS 220735Z AUTO 00000KT 10SM CLR 08/06 A3000 RMK AO2
KDNS 220715Z AUTO 00000KT 10SM CLR 09/06 A2998 RMK AO2
KDNS 220655Z AUTO 25003KT 10SM CLR 09/06 A2999 RMK AO2
KDNS 220635Z AUTO 23003KT 10SM CLR 08/07 A3000 RMK AO2
KDNS 220615Z AUTO 00000KT 10SM CLR 09/06 A2999 RMK AO2
KDNS 220555Z AUTO 00000KT 10SM CLR 08/06 A3000 RMK AO2
KDNS 220535Z AUTO 00000KT 10SM CLR 09/06 A3000 RMK AO2